sensor_id;sensor_type;location;lat;lon;timestamp;P1;durP1;ratioP1;P2;durP2;ratioP2
63398;SDS011;49533;-34.520;150.798;2022-08-11T00:00:21;2.75;;;0.80;;
63398;SDS011;49533;-34.520;150.798;2022-08-11T00:03:03;4.38;;;1.13;;
63398;SDS011;49533;-34.520;150.798;2022-08-11T00:05:37;2.33;;;0.80;;
63398;SDS011;49533;-34.520;150.798;2022-08-11T00:08:46;6.22;;;0.95;;
63398;SDS011;49533;-34.520;150.798;2022-08-11T00:11:07;1.40;;;0.80;;
63398;SDS011;49533;-34.520;150.798;2022-08-11T00:13:38;0.88;;;0.60;;
63398;SDS011;49533;-34.520;150.798;2022-08-11T00:16:11;1.88;;;1.00;;
63398;SDS011;49533;-34.520;150.798;2022-08-11T00:18:45;0.95;;;0.32;;
63398;SDS011;49533;-34.520;150.798;2022-08-11T00:21:16;1.25;;;0.73;;
63398;SDS011;49533;-34.520;150.798;2022-08-11T00:23:46;3.15;;;0.77;;
63398;SDS011;49533;-34.520;150.798;2022-08-11T00:28:47;2.33;;;0.60;;
63398;SDS011;49533;-34.520;150.798;2022-08-11T00:31:27;1.08;;;0.70;;
63398;SDS011;49533;-34.520;150.798;2022-08-11T00:33:59;1.05;;;0.50;;
63398;SDS011;49533;-34.520;150.798;2022-08-11T00:37:17;1.38;;;0.75;;
63398;SDS011;49533;-34.520;150.798;2022-08-11T00:39:19;2.95;;;0.70;;
63398;SDS011;49533;-34.520;150.798;2022-08-11T00:49:42;2.20;;;0.85;;
63398;SDS011;49533;-34.520;150.798;2022-08-11T00:52:43;1.77;;;0.60;;
63398;SDS011;49533;-34.520;150.798;2022-08-11T00:58:21;1.52;;;0.60;;
63398;SDS011;49533;-34.520;150.798;2022-08-11T01:06:48;2.25;;;0.80;;
63398;SDS011;49533;-34.520;150.798;2022-08-11T01:09:19;0.60;;;0.30;;
63398;SDS011;49533;-34.520;150.798;2022-08-11T01:18:15;0.90;;;0.50;;
63398;SDS011;49533;-34.520;150.798;2022-08-11T01:20:29;2.45;;;0.63;;
63398;SDS011;49533;-34.520;150.798;2022-08-11T01:32:30;1.85;;;0.70;;
63398;SDS011;49533;-34.520;150.798;2022-08-11T01:44:20;2.33;;;0.80;;
63398;SDS011;49533;-34.520;150.798;2022-08-11T01:50:27;1.92;;;0.40;;
63398;SDS011;49533;-34.520;150.798;2022-08-11T02:04:17;2.15;;;0.47;;
63398;SDS011;49533;-34.520;150.798;2022-08-11T02:07:22;1.23;;;0.50;;
63398;SDS011;49533;-34.520;150.798;2022-08-11T02:15:53;2.22;;;0.50;;
63398;SDS011;49533;-34.520;150.798;2022-08-11T02:18:33;2.45;;;0.63;;
63398;SDS011;49533;-34.520;150.798;2022-08-11T02:21:26;1.55;;;0.50;;
63398;SDS011;49533;-34.520;150.798;2022-08-11T02:24:25;2.75;;;0.60;;
63398;SDS011;49533;-34.520;150.798;2022-08-11T02:27:07;0.63;;;0.45;;
63398;SDS011;49533;-34.520;150.798;2022-08-11T02:32:20;1.58;;;0.57;;
63398;SDS011;49533;-34.520;150.798;2022-08-11T02:38:15;1.13;;;0.55;;
63398;SDS011;49533;-34.520;150.798;2022-08-11T02:40:52;0.98;;;0.40;;
63398;SDS011;49533;-34.520;150.798;2022-08-11T02:44:19;2.75;;;0.32;;
63398;SDS011;49533;-34.520;150.798;2022-08-11T02:49:27;0.75;;;0.50;;
63398;SDS011;49533;-34.520;150.798;2022-08-11T02:52:25;6.75;;;0.70;;
63398;SDS011;49533;-34.520;150.798;2022-08-11T02:57:58;1.67;;;0.50;;
63398;SDS011;49533;-34.520;150.798;2022-08-11T03:00:45;1.45;;;0.50;;
63398;SDS011;49533;-34.520;150.798;2022-08-11T03:14:45;2.47;;;0.68;;
63398;SDS011;49533;-34.520;150.798;2022-08-11T03:20:48;0.63;;;0.40;;
63398;SDS011;49533;-34.520;150.798;2022-08-11T03:23:25;16.17;;;2.50;;
63398;SDS011;49533;-34.520;150.798;2022-08-11T03:26:08;21.85;;;2.72;;
63398;SDS011;49533;-34.520;150.798;2022-08-11T03:34:47;39.45;;;5.90;;
63398;SDS011;49533;-34.520;150.798;2022-08-11T03:37:23;19.48;;;3.55;;
63398;SDS011;49533;-34.520;150.798;2022-08-11T03:43:16;5.38;;;1.85;;
63398;SDS011;49533;-34.520;150.798;2022-08-11T03:49:44;3.07;;;0.90;;
63398;SDS011;49533;-34.520;150.798;2022-08-11T03:52:27;3.63;;;0.88;;
63398;SDS011;49533;-34.520;150.798;2022-08-11T04:01:06;2.67;;;0.70;;
63398;SDS011;49533;-34.520;150.798;2022-08-11T04:09:45;8.55;;;1.00;;
63398;SDS011;49533;-34.520;150.798;2022-08-11T04:15:28;3.92;;;1.05;;
63398;SDS011;49533;-34.520;150.798;2022-08-11T04:40:49;2.05;;;0.93;;
63398;SDS011;49533;-34.520;150.798;2022-08-11T05:01:29;1.55;;;0.95;;
63398;SDS011;49533;-34.520;150.798;2022-08-11T05:12:34;1.60;;;0.90;;
63398;SDS011;49533;-34.520;150.798;2022-08-11T05:15:18;1.23;;;0.90;;
63398;SDS011;49533;-34.520;150.798;2022-08-11T05:18:21;2.00;;;1.00;;
63398;SDS011;49533;-34.520;150.798;2022-08-11T05:21:10;3.08;;;0.80;;
63398;SDS011;49533;-34.520;150.798;2022-08-11T05:24:19;1.75;;;0.90;;
63398;SDS011;49533;-34.520;150.798;2022-08-11T05:27:06;3.60;;;1.08;;
63398;SDS011;49533;-34.520;150.798;2022-08-11T05:30:01;1.17;;;0.77;;
63398;SDS011;49533;-34.520;150.798;2022-08-11T05:32:52;2.63;;;0.90;;
63398;SDS011;49533;-34.520;150.798;2022-08-11T05:35:45;2.47;;;0.70;;
63398;SDS011;49533;-34.520;150.798;2022-08-11T05:38:22;2.30;;;1.05;;
63398;SDS011;49533;-34.520;150.798;2022-08-11T05:43:58;2.58;;;1.17;;
63398;SDS011;49533;-34.520;150.798;2022-08-11T05:46:45;4.65;;;1.38;;
63398;SDS011;49533;-34.520;150.798;2022-08-11T05:49:32;1.20;;;1.10;;
63398;SDS011;49533;-34.520;150.798;2022-08-11T05:52:25;2.22;;;0.80;;
63398;SDS011;49533;-34.520;150.798;2022-08-11T05:55:13;4.63;;;1.15;;
63398;SDS011;49533;-34.520;150.798;2022-08-11T05:58:03;1.98;;;1.00;;
63398;SDS011;49533;-34.520;150.798;2022-08-11T06:00:40;1.73;;;0.90;;
63398;SDS011;49533;-34.520;150.798;2022-08-11T06:03:08;1.38;;;0.98;;
63398;SDS011;49533;-34.520;150.798;2022-08-11T06:05:39;2.15;;;0.93;;
63398;SDS011;49533;-34.520;150.798;2022-08-11T06:08:07;2.10;;;0.90;;
63398;SDS011;49533;-34.520;150.798;2022-08-11T06:10:40;3.70;;;1.02;;
63398;SDS011;49533;-34.520;150.798;2022-08-11T06:13:09;2.95;;;1.35;;
63398;SDS011;49533;-34.520;150.798;2022-08-11T06:15:47;1.48;;;1.20;;
63398;SDS011;49533;-34.520;150.798;2022-08-11T06:18:16;1.83;;;1.00;;
63398;SDS011;49533;-34.520;150.798;2022-08-11T06:20:52;2.92;;;1.05;;
63398;SDS011;49533;-34.520;150.798;2022-08-11T06:23:21;4.88;;;1.17;;
63398;SDS011;49533;-34.520;150.798;2022-08-11T06:25:51;2.08;;;0.98;;
63398;SDS011;49533;-34.520;150.798;2022-08-11T06:28:19;1.40;;;1.02;;
63398;SDS011;49533;-34.520;150.798;2022-08-11T06:30:56;4.10;;;1.27;;
63398;SDS011;49533;-34.520;150.798;2022-08-11T06:33:32;2.47;;;1.40;;
63398;SDS011;49533;-34.520;150.798;2022-08-11T06:36:31;2.90;;;1.08;;
63398;SDS011;49533;-34.520;150.798;2022-08-11T06:41:47;3.40;;;1.10;;
63398;SDS011;49533;-34.520;150.798;2022-08-11T06:44:42;2.67;;;1.20;;
63398;SDS011;49533;-34.520;150.798;2022-08-11T06:47:17;2.95;;;0.90;;
63398;SDS011;49533;-34.520;150.798;2022-08-11T06:49:46;1.65;;;1.20;;
63398;SDS011;49533;-34.520;150.798;2022-08-11T06:52:35;2.45;;;1.00;;
63398;SDS011;49533;-34.520;150.798;2022-08-11T06:55:08;4.60;;;1.33;;
63398;SDS011;49533;-34.520;150.798;2022-08-11T06:57:40;1.45;;;1.13;;
63398;SDS011;49533;-34.520;150.798;2022-08-11T07:00:30;1.90;;;1.20;;
63398;SDS011;49533;-34.520;150.798;2022-08-11T07:03:02;1.83;;;1.10;;
63398;SDS011;49533;-34.520;150.798;2022-08-11T07:14:27;2.50;;;1.20;;
63398;SDS011;49533;-34.520;150.798;2022-08-11T07:17:15;3.30;;;1.55;;
63398;SDS011;49533;-34.520;150.798;2022-08-11T07:19:50;2.55;;;1.40;;
63398;SDS011;49533;-34.520;150.798;2022-08-11T07:22:39;4.70;;;1.33;;
63398;SDS011;49533;-34.520;150.798;2022-08-11T07:25:26;3.85;;;1.40;;
63398;SDS011;49533;-34.520;150.798;2022-08-11T07:28:23;3.63;;;1.45;;
63398;SDS011;49533;-34.520;150.798;2022-08-11T07:31:11;3.80;;;1.52;;
63398;SDS011;49533;-34.520;150.798;2022-08-11T07:33:48;6.93;;;2.10;;
63398;SDS011;49533;-34.520;150.798;2022-08-11T07:36:24;3.05;;;1.52;;
63398;SDS011;49533;-34.520;150.798;2022-08-11T07:38:55;6.38;;;1.83;;
63398;SDS011;49533;-34.520;150.798;2022-08-11T07:41:24;2.15;;;1.52;;
63398;SDS011;49533;-34.520;150.798;2022-08-11T07:43:54;3.40;;;1.25;;
63398;SDS011;49533;-34.520;150.798;2022-08-11T07:46:45;2.58;;;1.00;;
63398;SDS011;49533;-34.520;150.798;2022-08-11T07:49:36;2.63;;;1.58;;
63398;SDS011;49533;-34.520;150.798;2022-08-11T07:52:24;3.50;;;1.60;;
63398;SDS011;49533;-34.520;150.798;2022-08-11T07:55:07;6.63;;;2.20;;
63398;SDS011;49533;-34.520;150.798;2022-08-11T07:57:42;4.05;;;1.73;;
63398;SDS011;49533;-34.520;150.798;2022-08-11T08:00:34;3.97;;;1.58;;
63398;SDS011;49533;-34.520;150.798;2022-08-11T08:03:23;2.45;;;1.17;;
63398;SDS011;49533;-34.520;150.798;2022-08-11T08:06:09;5.05;;;1.20;;
63398;SDS011;49533;-34.520;150.798;2022-08-11T08:08:54;2.92;;;1.30;;
63398;SDS011;49533;-34.520;150.798;2022-08-11T08:11:40;4.90;;;1.75;;
63398;SDS011;49533;-34.520;150.798;2022-08-11T08:14:27;3.20;;;0.95;;
63398;SDS011;49533;-34.520;150.798;2022-08-11T08:17:13;0.82;;;0.73;;
63398;SDS011;49533;-34.520;150.798;2022-08-11T08:19:58;3.05;;;1.45;;
63398;SDS011;49533;-34.520;150.798;2022-08-11T08:22:27;5.65;;;1.60;;
63398;SDS011;49533;-34.520;150.798;2022-08-11T08:24:54;4.43;;;1.15;;
63398;SDS011;49533;-34.520;150.798;2022-08-11T08:27:22;2.60;;;1.20;;
63398;SDS011;49533;-34.520;150.798;2022-08-11T08:29:50;9.20;;;1.55;;
63398;SDS011;49533;-34.520;150.798;2022-08-11T08:32:37;2.78;;;1.10;;
63398;SDS011;49533;-34.520;150.798;2022-08-11T08:35:06;2.25;;;1.02;;
63398;SDS011;49533;-34.520;150.798;2022-08-11T08:37:36;4.07;;;1.25;;
63398;SDS011;49533;-34.520;150.798;2022-08-11T08:40:07;1.85;;;1.45;;
63398;SDS011;49533;-34.520;150.798;2022-08-11T08:42:39;3.22;;;1.60;;
63398;SDS011;49533;-34.520;150.798;2022-08-11T08:45:11;4.20;;;2.03;;
63398;SDS011;49533;-34.520;150.798;2022-08-11T08:47:47;2.78;;;1.05;;
63398;SDS011;49533;-34.520;150.798;2022-08-11T08:50:20;2.00;;;1.08;;
63398;SDS011;49533;-34.520;150.798;2022-08-11T08:52:51;1.73;;;1.23;;
63398;SDS011;49533;-34.520;150.798;2022-08-11T08:55:23;2.80;;;1.10;;
63398;SDS011;49533;-34.520;150.798;2022-08-11T08:57:53;3.20;;;1.10;;
63398;SDS011;49533;-34.520;150.798;2022-08-11T09:00:25;1.55;;;1.17;;
63398;SDS011;49533;-34.520;150.798;2022-08-11T09:03:03;1.98;;;1.27;;
63398;SDS011;49533;-34.520;150.798;2022-08-11T09:05:31;2.75;;;1.10;;
63398;SDS011;49533;-34.520;150.798;2022-08-11T09:07:58;2.95;;;1.70;;
63398;SDS011;49533;-34.520;150.798;2022-08-11T09:10:26;1.77;;;1.30;;
63398;SDS011;49533;-34.520;150.798;2022-08-11T09:12:55;1.48;;;1.20;;
63398;SDS011;49533;-34.520;150.798;2022-08-11T09:15:24;2.58;;;1.33;;
63398;SDS011;49533;-34.520;150.798;2022-08-11T09:17:53;1.35;;;1.10;;
63398;SDS011;49533;-34.520;150.798;2022-08-11T09:20:39;4.22;;;1.50;;
63398;SDS011;49533;-34.520;150.798;2022-08-11T09:23:07;1.30;;;1.20;;
63398;SDS011;49533;-34.520;150.798;2022-08-11T09:25:54;1.08;;;1.02;;
63398;SDS011;49533;-34.520;150.798;2022-08-11T09:28:41;1.60;;;1.30;;
63398;SDS011;49533;-34.520;150.798;2022-08-11T09:31:09;1.45;;;1.30;;
63398;SDS011;49533;-34.520;150.798;2022-08-11T09:33:37;3.13;;;1.30;;
63398;SDS011;49533;-34.520;150.798;2022-08-11T09:36:06;2.25;;;1.25;;
63398;SDS011;49533;-34.520;150.798;2022-08-11T09:38:52;1.55;;;0.93;;
63398;SDS011;49533;-34.520;150.798;2022-08-11T09:41:39;2.95;;;1.20;;
63398;SDS011;49533;-34.520;150.798;2022-08-11T09:44:08;1.60;;;0.93;;
63398;SDS011;49533;-34.520;150.798;2022-08-11T09:46:54;1.25;;;1.17;;
63398;SDS011;49533;-34.520;150.798;2022-08-11T09:49:25;1.33;;;1.08;;
63398;SDS011;49533;-34.520;150.798;2022-08-11T09:51:53;2.70;;;1.33;;
63398;SDS011;49533;-34.520;150.798;2022-08-11T09:54:22;1.85;;;1.10;;
63398;SDS011;49533;-34.520;150.798;2022-08-11T09:56:52;2.85;;;1.40;;
63398;SDS011;49533;-34.520;150.798;2022-08-11T09:59:37;4.03;;;1.52;;
63398;SDS011;49533;-34.520;150.798;2022-08-11T10:02:06;2.70;;;1.00;;
63398;SDS011;49533;-34.520;150.798;2022-08-11T10:04:42;2.25;;;1.10;;
63398;SDS011;49533;-34.520;150.798;2022-08-11T10:07:12;0.95;;;0.93;;
63398;SDS011;49533;-34.520;150.798;2022-08-11T10:12:24;1.13;;;0.90;;
63398;SDS011;49533;-34.520;150.798;2022-08-11T10:15:16;1.75;;;1.13;;
63398;SDS011;49533;-34.520;150.798;2022-08-11T10:20:56;2.40;;;1.00;;
63398;SDS011;49533;-34.520;150.798;2022-08-11T10:23:27;2.88;;;1.30;;
63398;SDS011;49533;-34.520;150.798;2022-08-11T10:26:17;2.42;;;1.20;;
63398;SDS011;49533;-34.520;150.798;2022-08-11T10:29:04;3.35;;;1.63;;
63398;SDS011;49533;-34.520;150.798;2022-08-11T10:31:54;4.35;;;1.63;;
63398;SDS011;49533;-34.520;150.798;2022-08-11T10:34:40;2.97;;;1.40;;
63398;SDS011;49533;-34.520;150.798;2022-08-11T10:37:10;1.10;;;1.00;;
63398;SDS011;49533;-34.520;150.798;2022-08-11T10:39:38;1.33;;;1.23;;
63398;SDS011;49533;-34.520;150.798;2022-08-11T10:42:06;2.33;;;1.30;;
63398;SDS011;49533;-34.520;150.798;2022-08-11T10:44:53;1.13;;;1.02;;
63398;SDS011;49533;-34.520;150.798;2022-08-11T10:47:22;1.75;;;1.25;;
63398;SDS011;49533;-34.520;150.798;2022-08-11T10:50:10;1.42;;;1.23;;
63398;SDS011;49533;-34.520;150.798;2022-08-11T10:52:57;1.25;;;1.15;;
63398;SDS011;49533;-34.520;150.798;2022-08-11T10:55:44;2.33;;;1.33;;
63398;SDS011;49533;-34.520;150.798;2022-08-11T10:58:30;3.60;;;1.83;;
63398;SDS011;49533;-34.520;150.798;2022-08-11T11:04:08;1.23;;;1.00;;
63398;SDS011;49533;-34.520;150.798;2022-08-11T11:09:56;4.63;;;1.52;;
63398;SDS011;49533;-34.520;150.798;2022-08-11T11:15:13;1.30;;;0.98;;
63398;SDS011;49533;-34.520;150.798;2022-08-11T11:18:03;2.17;;;1.10;;
63398;SDS011;49533;-34.520;150.798;2022-08-11T11:20:41;3.10;;;1.40;;
63398;SDS011;49533;-34.520;150.798;2022-08-11T11:32:30;1.73;;;1.10;;
63398;SDS011;49533;-34.520;150.798;2022-08-11T11:38:09;1.33;;;1.10;;
63398;SDS011;49533;-34.520;150.798;2022-08-11T11:40:36;1.60;;;1.15;;
63398;SDS011;49533;-34.520;150.798;2022-08-11T11:43:05;1.10;;;1.10;;
63398;SDS011;49533;-34.520;150.798;2022-08-11T11:45:32;1.58;;;1.10;;
63398;SDS011;49533;-34.520;150.798;2022-08-11T11:47:59;1.73;;;1.02;;
63398;SDS011;49533;-34.520;150.798;2022-08-11T11:50:29;1.23;;;1.13;;
63398;SDS011;49533;-34.520;150.798;2022-08-11T11:53:01;1.40;;;1.30;;
63398;SDS011;49533;-34.520;150.798;2022-08-11T11:55:31;1.45;;;1.35;;
63398;SDS011;49533;-34.520;150.798;2022-08-11T11:57:59;2.10;;;1.40;;
63398;SDS011;49533;-34.520;150.798;2022-08-11T12:00:46;1.17;;;1.08;;
63398;SDS011;49533;-34.520;150.798;2022-08-11T12:03:32;1.20;;;1.10;;
63398;SDS011;49533;-34.520;150.798;2022-08-11T12:06:02;2.63;;;1.42;;
63398;SDS011;49533;-34.520;150.798;2022-08-11T12:08:30;1.60;;;1.50;;
63398;SDS011;49533;-34.520;150.798;2022-08-11T12:10:58;2.58;;;1.40;;
63398;SDS011;49533;-34.520;150.798;2022-08-11T12:13:46;1.60;;;1.50;;
63398;SDS011;49533;-34.520;150.798;2022-08-11T12:16:20;1.90;;;1.60;;
63398;SDS011;49533;-34.520;150.798;2022-08-11T12:18:49;1.88;;;1.58;;
63398;SDS011;49533;-34.520;150.798;2022-08-11T12:21:22;2.20;;;1.33;;
63398;SDS011;49533;-34.520;150.798;2022-08-11T12:23:51;1.40;;;1.30;;
63398;SDS011;49533;-34.520;150.798;2022-08-11T12:26:43;1.65;;;1.52;;
63398;SDS011;49533;-34.520;150.798;2022-08-11T12:29:15;3.22;;;1.65;;
63398;SDS011;49533;-34.520;150.798;2022-08-11T12:31:52;2.25;;;1.58;;
63398;SDS011;49533;-34.520;150.798;2022-08-11T12:34:20;1.63;;;1.20;;
63398;SDS011;49533;-34.520;150.798;2022-08-11T12:39:22;1.60;;;1.50;;
63398;SDS011;49533;-34.520;150.798;2022-08-11T12:42:10;3.53;;;1.52;;
63398;SDS011;49533;-34.520;150.798;2022-08-11T12:45:00;1.80;;;1.30;;
63398;SDS011;49533;-34.520;150.798;2022-08-11T12:47:47;2.17;;;1.70;;
63398;SDS011;49533;-34.520;150.798;2022-08-11T12:50:34;2.05;;;1.48;;
63398;SDS011;49533;-34.520;150.798;2022-08-11T12:53:23;1.80;;;1.70;;
63398;SDS011;49533;-34.520;150.798;2022-08-11T12:55:56;1.58;;;1.48;;
63398;SDS011;49533;-34.520;150.798;2022-08-11T12:58:47;1.08;;;1.08;;
63398;SDS011;49533;-34.520;150.798;2022-08-11T13:01:16;1.85;;;1.45;;
63398;SDS011;49533;-34.520;150.798;2022-08-11T13:04:02;4.00;;;1.55;;
63398;SDS011;49533;-34.520;150.798;2022-08-11T13:06:49;1.77;;;1.67;;
63398;SDS011;49533;-34.520;150.798;2022-08-11T13:09:17;2.92;;;1.33;;
63398;SDS011;49533;-34.520;150.798;2022-08-11T13:11:45;1.60;;;1.40;;
63398;SDS011;49533;-34.520;150.798;2022-08-11T13:14:31;1.40;;;1.33;;
63398;SDS011;49533;-34.520;150.798;2022-08-11T13:16:59;1.77;;;1.45;;
63398;SDS011;49533;-34.520;150.798;2022-08-11T13:19:45;2.28;;;1.25;;
63398;SDS011;49533;-34.520;150.798;2022-08-11T13:22:15;1.95;;;1.67;;
63398;SDS011;49533;-34.520;150.798;2022-08-11T13:24:43;2.20;;;1.65;;
63398;SDS011;49533;-34.520;150.798;2022-08-11T13:27:14;1.95;;;1.50;;
63398;SDS011;49533;-34.520;150.798;2022-08-11T13:29:43;2.53;;;1.65;;
63398;SDS011;49533;-34.520;150.798;2022-08-11T13:32:13;2.15;;;1.85;;
63398;SDS011;49533;-34.520;150.798;2022-08-11T13:34:41;2.25;;;1.50;;
63398;SDS011;49533;-34.520;150.798;2022-08-11T13:37:09;1.85;;;1.65;;
63398;SDS011;49533;-34.520;150.798;2022-08-11T13:39:39;1.45;;;1.35;;
63398;SDS011;49533;-34.520;150.798;2022-08-11T13:42:12;3.58;;;1.83;;
63398;SDS011;49533;-34.520;150.798;2022-08-11T13:44:44;2.15;;;1.80;;
63398;SDS011;49533;-34.520;150.798;2022-08-11T13:47:13;3.17;;;1.80;;
63398;SDS011;49533;-34.520;150.798;2022-08-11T13:49:41;2.28;;;1.90;;
63398;SDS011;49533;-34.520;150.798;2022-08-11T13:52:11;1.73;;;1.63;;
63398;SDS011;49533;-34.520;150.798;2022-08-11T13:54:40;5.60;;;1.90;;
63398;SDS011;49533;-34.520;150.798;2022-08-11T13:57:11;1.63;;;1.52;;
63398;SDS011;49533;-34.520;150.798;2022-08-11T13:59:44;3.92;;;1.70;;
63398;SDS011;49533;-34.520;150.798;2022-08-11T14:02:20;3.53;;;2.13;;
63398;SDS011;49533;-34.520;150.798;2022-08-11T14:07:28;1.67;;;1.58;;
63398;SDS011;49533;-34.520;150.798;2022-08-11T14:12:32;3.63;;;1.70;;
63398;SDS011;49533;-34.520;150.798;2022-08-11T14:15:24;2.97;;;1.70;;
63398;SDS011;49533;-34.520;150.798;2022-08-11T14:18:07;2.95;;;2.10;;
63398;SDS011;49533;-34.520;150.798;2022-08-11T14:20:39;3.47;;;2.05;;
63398;SDS011;49533;-34.520;150.798;2022-08-11T14:23:42;2.05;;;1.77;;
63398;SDS011;49533;-34.520;150.798;2022-08-11T14:26:13;3.33;;;2.53;;
63398;SDS011;49533;-34.520;150.798;2022-08-11T14:31:20;2.03;;;1.58;;
63398;SDS011;49533;-34.520;150.798;2022-08-11T14:33:50;1.95;;;1.65;;
63398;SDS011;49533;-34.520;150.798;2022-08-11T14:36:21;1.70;;;1.60;;
63398;SDS011;49533;-34.520;150.798;2022-08-11T14:38:51;2.38;;;1.73;;
63398;SDS011;49533;-34.520;150.798;2022-08-11T14:41:19;5.60;;;2.10;;
63398;SDS011;49533;-34.520;150.798;2022-08-11T14:44:06;3.28;;;2.03;;
63398;SDS011;49533;-34.520;150.798;2022-08-11T14:46:53;2.72;;;2.17;;
63398;SDS011;49533;-34.520;150.798;2022-08-11T14:49:32;2.15;;;1.88;;
63398;SDS011;49533;-34.520;150.798;2022-08-11T14:52:03;3.20;;;2.08;;
63398;SDS011;49533;-34.520;150.798;2022-08-11T14:54:34;2.83;;;1.98;;
63398;SDS011;49533;-34.520;150.798;2022-08-11T14:57:21;2.15;;;1.95;;
63398;SDS011;49533;-34.520;150.798;2022-08-11T14:59:49;2.20;;;1.70;;
63398;SDS011;49533;-34.520;150.798;2022-08-11T15:02:17;2.00;;;1.65;;
63398;SDS011;49533;-34.520;150.798;2022-08-11T15:05:03;3.13;;;2.08;;
63398;SDS011;49533;-34.520;150.798;2022-08-11T15:07:31;1.80;;;1.70;;
63398;SDS011;49533;-34.520;150.798;2022-08-11T15:10:04;2.40;;;1.92;;
63398;SDS011;49533;-34.520;150.798;2022-08-11T15:12:34;3.38;;;1.85;;
63398;SDS011;49533;-34.520;150.798;2022-08-11T15:15:04;2.35;;;2.15;;
63398;SDS011;49533;-34.520;150.798;2022-08-11T15:17:52;1.80;;;1.70;;
63398;SDS011;49533;-34.520;150.798;2022-08-11T15:20:21;2.35;;;1.70;;
63398;SDS011;49533;-34.520;150.798;2022-08-11T15:23:08;1.98;;;1.88;;
63398;SDS011;49533;-34.520;150.798;2022-08-11T15:25:58;2.20;;;1.92;;
63398;SDS011;49533;-34.520;150.798;2022-08-11T15:28:30;2.05;;;1.88;;
63398;SDS011;49533;-34.520;150.798;2022-08-11T15:31:20;2.13;;;1.88;;
63398;SDS011;49533;-34.520;150.798;2022-08-11T15:33:56;2.15;;;2.05;;
63398;SDS011;49533;-34.520;150.798;2022-08-11T15:36:49;2.72;;;2.50;;
63398;SDS011;49533;-34.520;150.798;2022-08-11T15:39:47;2.08;;;1.80;;
63398;SDS011;49533;-34.520;150.798;2022-08-11T15:42:33;2.38;;;2.00;;
63398;SDS011;49533;-34.520;150.798;2022-08-11T15:45:24;2.15;;;2.05;;
63398;SDS011;49533;-34.520;150.798;2022-08-11T15:48:11;2.65;;;2.00;;
63398;SDS011;49533;-34.520;150.798;2022-08-11T15:51:19;3.15;;;2.30;;
63398;SDS011;49533;-34.520;150.798;2022-08-11T15:54:06;3.15;;;1.90;;
63398;SDS011;49533;-34.520;150.798;2022-08-11T15:56:40;4.88;;;2.40;;
63398;SDS011;49533;-34.520;150.798;2022-08-11T15:59:10;2.38;;;1.95;;
63398;SDS011;49533;-34.520;150.798;2022-08-11T16:01:58;2.15;;;2.05;;
63398;SDS011;49533;-34.520;150.798;2022-08-11T16:04:55;2.53;;;2.10;;
63398;SDS011;49533;-34.520;150.798;2022-08-11T16:07:25;2.13;;;1.90;;
63398;SDS011;49533;-34.520;150.798;2022-08-11T16:09:59;3.38;;;2.28;;
63398;SDS011;49533;-34.520;150.798;2022-08-11T16:12:34;2.60;;;2.17;;
63398;SDS011;49533;-34.520;150.798;2022-08-11T16:15:41;2.45;;;2.25;;
63398;SDS011;49533;-34.520;150.798;2022-08-11T16:18:32;3.63;;;2.60;;
63398;SDS011;49533;-34.520;150.798;2022-08-11T16:21:07;2.00;;;1.90;;
63398;SDS011;49533;-34.520;150.798;2022-08-11T16:23:42;3.15;;;1.92;;
63398;SDS011;49533;-34.520;150.798;2022-08-11T16:26:13;2.58;;;2.20;;
63398;SDS011;49533;-34.520;150.798;2022-08-11T16:28:56;4.65;;;2.40;;
63398;SDS011;49533;-34.520;150.798;2022-08-11T16:31:26;3.38;;;2.30;;
63398;SDS011;49533;-34.520;150.798;2022-08-11T16:33:54;3.20;;;2.53;;
63398;SDS011;49533;-34.520;150.798;2022-08-11T16:36:23;2.40;;;2.20;;
63398;SDS011;49533;-34.520;150.798;2022-08-11T16:39:11;3.55;;;2.38;;
63398;SDS011;49533;-34.520;150.798;2022-08-11T16:41:43;2.70;;;2.50;;
63398;SDS011;49533;-34.520;150.798;2022-08-11T16:44:30;2.72;;;2.28;;
63398;SDS011;49533;-34.520;150.798;2022-08-11T16:47:17;3.22;;;2.80;;
63398;SDS011;49533;-34.520;150.798;2022-08-11T16:49:48;3.38;;;2.63;;
63398;SDS011;49533;-34.520;150.798;2022-08-11T16:52:19;4.72;;;2.10;;
63398;SDS011;49533;-34.520;150.798;2022-08-11T16:54:48;2.70;;;2.50;;
63398;SDS011;49533;-34.520;150.798;2022-08-11T16:57:24;4.00;;;2.70;;
63398;SDS011;49533;-34.520;150.798;2022-08-11T17:00:16;3.33;;;2.17;;
63398;SDS011;49533;-34.520;150.798;2022-08-11T17:02:44;3.00;;;2.65;;
63398;SDS011;49533;-34.520;150.798;2022-08-11T17:05:33;2.70;;;2.47;;
63398;SDS011;49533;-34.520;150.798;2022-08-11T17:08:19;5.43;;;2.65;;
63398;SDS011;49533;-34.520;150.798;2022-08-11T17:11:13;4.13;;;2.60;;
63398;SDS011;49533;-34.520;150.798;2022-08-11T17:13:59;2.60;;;2.28;;
63398;SDS011;49533;-34.520;150.798;2022-08-11T17:16:35;2.42;;;2.20;;
63398;SDS011;49533;-34.520;150.798;2022-08-11T17:19:09;3.38;;;2.47;;
63398;SDS011;49533;-34.520;150.798;2022-08-11T17:21:48;3.95;;;2.70;;
63398;SDS011;49533;-34.520;150.798;2022-08-11T17:24:36;3.03;;;2.13;;
63398;SDS011;49533;-34.520;150.798;2022-08-11T17:27:08;1.98;;;1.88;;
63398;SDS011;49533;-34.520;150.798;2022-08-11T17:29:59;2.60;;;2.22;;
63398;SDS011;49533;-34.520;150.798;2022-08-11T17:32:32;2.53;;;2.33;;
63398;SDS011;49533;-34.520;150.798;2022-08-11T17:35:36;3.22;;;2.17;;
63398;SDS011;49533;-34.520;150.798;2022-08-11T17:40:58;3.15;;;2.65;;
63398;SDS011;49533;-34.520;150.798;2022-08-11T17:43:45;2.75;;;2.45;;
63398;SDS011;49533;-34.520;150.798;2022-08-11T17:46:32;2.80;;;2.45;;
63398;SDS011;49533;-34.520;150.798;2022-08-11T17:49:19;2.55;;;2.17;;
63398;SDS011;49533;-34.520;150.798;2022-08-11T17:51:48;2.22;;;2.03;;
63398;SDS011;49533;-34.520;150.798;2022-08-11T17:54:35;3.38;;;2.25;;
63398;SDS011;49533;-34.520;150.798;2022-08-11T17:57:22;2.47;;;2.28;;
63398;SDS011;49533;-34.520;150.798;2022-08-11T18:00:07;2.28;;;2.08;;
63398;SDS011;49533;-34.520;150.798;2022-08-11T18:02:36;2.17;;;2.03;;
63398;SDS011;49533;-34.520;150.798;2022-08-11T18:05:30;2.03;;;1.83;;
63398;SDS011;49533;-34.520;150.798;2022-08-11T18:08:02;2.47;;;2.28;;
63398;SDS011;49533;-34.520;150.798;2022-08-11T18:10:51;5.10;;;3.45;;
63398;SDS011;49533;-34.520;150.798;2022-08-11T18:13:39;3.00;;;2.17;;
63398;SDS011;49533;-34.520;150.798;2022-08-11T18:16:26;2.15;;;2.05;;
63398;SDS011;49533;-34.520;150.798;2022-08-11T18:19:17;2.83;;;2.60;;
63398;SDS011;49533;-34.520;150.798;2022-08-11T18:22:14;2.35;;;2.15;;
63398;SDS011;49533;-34.520;150.798;2022-08-11T18:25:12;2.28;;;2.17;;
63398;SDS011;49533;-34.520;150.798;2022-08-11T18:27:59;2.00;;;1.88;;
63398;SDS011;49533;-34.520;150.798;2022-08-11T18:30:49;1.95;;;1.85;;
63398;SDS011;49533;-34.520;150.798;2022-08-11T18:37:00;2.30;;;2.10;;
63398;SDS011;49533;-34.520;150.798;2022-08-11T18:39:52;1.92;;;1.73;;
63398;SDS011;49533;-34.520;150.798;2022-08-11T18:42:41;2.40;;;2.20;;
63398;SDS011;49533;-34.520;150.798;2022-08-11T18:45:30;2.47;;;2.28;;
63398;SDS011;49533;-34.520;150.798;2022-08-11T18:48:16;2.17;;;2.00;;
63398;SDS011;49533;-34.520;150.798;2022-08-11T18:51:07;2.67;;;2.47;;
63398;SDS011;49533;-34.520;150.798;2022-08-11T18:53:55;2.45;;;1.92;;
63398;SDS011;49533;-34.520;150.798;2022-08-11T18:56:45;2.40;;;2.20;;
63398;SDS011;49533;-34.520;150.798;2022-08-11T18:59:34;2.80;;;2.45;;
63398;SDS011;49533;-34.520;150.798;2022-08-11T19:02:24;4.35;;;2.22;;